Time;durP1;ratioP1;P1;durP2;ratioP2;P2;SDS_P1;SDS_P2;PMS_P1;PMS_P2;Temp;Humidity;BMP_temperature;BMP_pressure;BME280_temperature;BME280_humidity;BME280_pressure;Samples;Min_cycle;Max_cycle;Signal;HPM_P1;HPM_P2
2023/01/04 00:01:13;;;;;;;14.20;8.70;;;6.70;1.00;;;;;;5051611;28;20508;-72
2023/01/04 00:03:40;;;;;;;12.60;8.30;;;6.70;1.00;;;;;;5052333;28;20466;-70
2023/01/04 00:06:07;;;;;;;15.33;9.47;;;6.70;1.00;;;;;;5052215;28;20401;-70
2023/01/04 00:08:33;;;;;;;13.23;7.70;;;6.70;1.00;;;;;;5051813;28;20413;-72
2023/01/04 00:11:03;;;;;;;18.03;8.60;;;6.70;1.00;;;;;;5052854;28;20402;-70
2023/01/04 00:13:30;;;;;;;11.70;8.97;;;6.80;1.00;;;;;;5051258;28;20977;-70
2023/01/04 00:15:56;;;;;;;11.13;8.23;;;6.80;1.00;;;;;;5051995;28;20422;-70
2023/01/04 00:18:21;;;;;;;11.97;7.93;;;6.80;1.00;;;;;;5052787;28;20405;-73
2023/01/04 00:20:47;;;;;;;11.70;7.40;;;6.80;1.00;;;;;;5051750;28;20942;-70
2023/01/04 00:23:13;;;;;;;11.10;7.33;;;6.70;1.00;;;;;;5052111;28;20434;-69
2023/01/04 00:25:39;;;;;;;10.70;7.23;;;6.70;1.00;;;;;;5051924;28;20663;-72
2023/01/04 00:28:05;;;;;;;11.07;7.20;;;6.70;1.00;;;;;;5052664;28;20177;-72
2023/01/04 00:30:30;;;;;;;13.03;8.10;;;6.70;1.00;;;;;;5052649;28;20202;-72
2023/01/04 00:32:57;;;;;;;10.53;7.63;;;6.70;1.00;;;;;;5052719;28;21030;-72
2023/01/04 00:35:23;;;;;;;14.43;8.27;;;6.70;1.00;;;;;;5051803;28;20194;-72
2023/01/04 00:37:49;;;;;;;10.43;6.50;;;6.70;1.00;;;;;;5051480;28;20452;-70
2023/01/04 00:40:15;;;;;;;7.17;6.47;;;6.70;1.00;;;;;;5051941;28;20406;-72
2023/01/04 00:42:40;;;;;;;11.60;7.60;;;6.70;1.00;;;;;;5052491;28;20175;-70
2023/01/04 00:45:07;;;;;;;24.40;7.10;;;6.70;1.00;;;;;;5051797;28;20556;-72
2023/01/04 00:47:33;;;;;;;8.20;6.63;;;6.80;1.00;;;;;;5052551;28;20167;-72
2023/01/04 00:49:58;;;;;;;14.60;7.33;;;6.80;1.00;;;;;;5052475;28;20402;-72
2023/01/04 00:52:25;;;;;;;8.50;6.43;;;6.80;1.00;;;;;;5051169;28;20486;-70
2023/01/04 00:54:51;;;;;;;8.87;6.77;;;6.80;1.00;;;;;;5050479;28;20674;-72
2023/01/04 00:57:17;;;;;;;8.10;6.37;;;6.70;1.00;;;;;;5053506;28;20431;-70
2023/01/04 00:59:42;;;;;;;8.67;6.40;;;6.80;1.00;;;;;;5054115;28;20175;-71
2023/01/04 01:02:08;;;;;;;7.20;5.97;;;6.80;1.00;;;;;;5036209;28;20175;-72
2023/01/04 01:04:34;;;;;;;6.27;5.70;;;6.80;1.00;;;;;;5035042;28;20533;-70
2023/01/04 01:07:00;;;;;;;7.57;5.80;;;6.70;1.00;;;;;;5056139;28;20175;-70
2023/01/04 01:09:26;;;;;;;6.77;5.83;;;6.70;1.00;;;;;;5055960;28;20432;-73
2023/01/04 01:11:52;;;;;;;6.60;6.03;;;6.70;1.00;;;;;;5037126;28;20226;-72
2023/01/04 01:14:21;;;;;;;6.00;5.40;;;6.70;1.00;;;;;;5035207;28;20513;-73
2023/01/04 01:16:47;;;;;;;7.63;5.50;;;6.70;1.00;;;;;;5052339;28;20475;-71
2023/01/04 01:19:13;;;;;;;9.13;5.90;;;6.70;1.00;;;;;;5055766;28;20433;-72
2023/01/04 01:21:39;;;;;;;7.20;4.50;;;6.70;1.00;;;;;;5042878;28;20186;-72
2023/01/04 01:24:05;;;;;;;5.33;4.83;;;6.70;1.00;;;;;;5055393;28;20418;-72
2023/01/04 01:26:31;;;;;;;6.43;4.77;;;6.70;1.00;;;;;;5054907;28;20174;-73
2023/01/04 01:28:58;;;;;;;7.77;5.37;;;6.70;1.00;;;;;;5054924;28;20429;-71
2023/01/04 01:31:26;;;;;;;6.17;4.93;;;6.70;1.00;;;;;;5055307;28;20262;-71
2023/01/04 01:33:54;;;;;;;8.40;5.40;;;6.80;1.00;;;;;;5041805;28;20911;-72
2023/01/04 01:36:22;;;;;;;7.30;3.97;;;6.80;1.00;;;;;;5034105;28;20403;-72
2023/01/04 01:38:48;;;;;;;5.10;4.63;;;6.80;1.00;;;;;;5047392;28;20425;-70
2023/01/04 01:41:23;;;;;;;4.77;3.73;;;6.80;1.00;;;;;;5055370;28;20408;-71
2023/01/04 01:44:01;;;;;;;4.43;3.97;;;6.80;1.00;;;;;;5043194;28;20801;-70
2023/01/04 01:46:45;;;;;;;6.60;4.00;;;6.80;1.00;;;;;;5034418;28;20426;-72
2023/01/04 01:49:20;;;;;;;9.23;3.83;;;6.80;1.00;;;;;;5049194;28;20503;-71
2023/01/04 01:51:46;;;;;;;4.10;3.67;;;6.80;1.00;;;;;;5055144;28;20831;-72
2023/01/04 01:54:19;;;;;;;6.53;3.60;;;6.80;1.00;;;;;;5050307;28;20441;-71
2023/01/04 01:56:50;;;;;;;4.00;3.80;;;6.80;1.00;;;;;;5052795;28;20426;-70
2023/01/04 01:59:17;;;;;;;6.30;3.13;;;6.80;1.00;;;;;;5055084;28;20408;-72
2023/01/04 02:01:43;;;;;;;3.33;3.07;;;6.80;1.00;;;;;;5050382;28;20433;-71
2023/01/04 02:04:10;;;;;;;3.70;3.40;;;6.80;1.00;;;;;;5035698;28;20453;-72
2023/01/04 02:06:40;;;;;;;9.13;3.73;;;6.80;1.00;;;;;;5036920;28;20949;-71
2023/01/04 02:09:07;;;;;;;6.30;2.73;;;6.80;1.00;;;;;;5054425;28;20409;-71
2023/01/04 02:11:32;;;;;;;6.50;3.13;;;6.80;1.00;;;;;;5052707;28;20957;-72
2023/01/04 02:17:06;;;;;;;4.37;3.60;;;6.80;1.00;;;;;;5037902;28;20177;-70
2023/01/04 02:19:50;;;;;;;3.80;3.50;;;6.80;1.00;;;;;;5054748;28;20459;-71
2023/01/04 02:23:08;;;;;;;2.90;2.70;;;6.80;1.00;;;;;;5047626;28;20434;-70
2023/01/04 02:25:43;;;;;;;4.10;2.60;;;6.90;1.00;;;;;;5033294;28;20525;-71
2023/01/04 02:28:27;;;;;;;4.50;2.57;;;6.90;1.00;;;;;;5047693;28;20582;-72
2023/01/04 02:31:04;;;;;;;7.80;2.73;;;6.90;1.00;;;;;;5034394;28;20780;-70
2023/01/04 02:33:41;;;;;;;4.53;2.73;;;6.90;1.00;;;;;;5049548;28;20460;-71
2023/01/04 02:36:32;;;;;;;4.03;2.30;;;6.90;1.00;;;;;;5053491;28;20442;-70
2023/01/04 02:39:28;;;;;;;3.23;1.80;;;7.00;1.00;;;;;;5035069;28;20419;-69
2023/01/04 02:42:06;;;;;;;3.03;2.03;;;7.00;1.00;;;;;;5034218;28;20757;-70
2023/01/04 02:44:51;;;;;;;7.90;2.60;;;7.00;1.00;;;;;;5053370;28;20864;-70
2023/01/04 02:50:48;;;;;;;4.53;2.93;;;7.10;1.00;;;;;;5034065;28;20933;-72
2023/01/04 02:53:18;;;;;;;2.43;2.23;;;7.10;1.00;;;;;;5044926;28;20475;-69
2023/01/04 02:56:11;;;;;;;2.93;1.97;;;7.10;1.00;;;;;;5052963;28;20793;-71
2023/01/04 02:58:42;;;;;;;2.53;2.40;;;7.20;1.00;;;;;;5039617;28;20442;-70
2023/01/04 03:07:51;;;;;;;2.97;2.50;;;7.20;1.00;;;;;;5052191;28;20428;-71
2023/01/04 03:10:31;;;;;;;10.20;3.40;;;7.20;1.00;;;;;;5053721;28;20401;-70
2023/01/04 03:13:06;;;;;;;2.50;2.30;;;7.20;1.00;;;;;;5042759;28;20552;-71
2023/01/04 03:15:35;;;;;;;2.30;2.20;;;7.20;1.00;;;;;;5031801;28;20444;-72
2023/01/04 03:18:24;;;;;;;2.23;2.03;;;7.20;1.00;;;;;;5036667;28;20418;-72
2023/01/04 03:20:52;;;;;;;4.60;2.20;;;7.20;1.00;;;;;;5032762;28;20410;-71
2023/01/04 03:37:29;;;;;;;3.50;2.33;;;7.20;1.00;;;;;;5046164;28;20425;-72
2023/01/04 03:48:55;;;;;;;2.67;2.57;;;7.10;1.00;;;;;;5036507;28;20945;-72
2023/01/04 03:51:35;;;;;;;2.60;2.40;;;7.10;1.00;;;;;;5033089;28;20479;-73
2023/01/04 03:54:15;;;;;;;3.73;1.90;;;7.00;1.00;;;;;;5051245;28;20443;-71
2023/01/04 03:56:43;;;;;;;6.20;2.60;;;7.00;1.00;;;;;;5041266;28;20422;-71
2023/01/04 03:59:11;;;;;;;2.63;2.43;;;7.00;1.00;;;;;;5032436;28;20464;-72
2023/01/04 04:01:38;;;;;;;2.23;2.03;;;7.00;1.00;;;;;;5042504;28;20448;-71
2023/01/04 04:09:34;;;;;;;8.63;2.30;;;7.00;1.00;;;;;;5033041;28;20823;-73
2023/01/04 04:11:59;;;;;;;2.50;2.30;;;6.90;1.00;;;;;;5035935;28;20458;-70
2023/01/04 04:14:25;;;;;;;4.20;2.47;;;6.90;1.00;;;;;;5031893;28;20939;-73
2023/01/04 04:16:51;;;;;;;2.03;1.93;;;6.90;1.00;;;;;;5032340;28;20549;-73
2023/01/04 04:19:16;;;;;;;2.10;2.00;;;6.90;1.00;;;;;;5032741;28;20171;-71
2023/01/04 04:21:42;;;;;;;3.30;2.50;;;6.90;1.00;;;;;;5044584;28;20240;-70
2023/01/04 04:24:17;;;;;;;7.47;2.53;;;6.90;1.00;;;;;;5052456;28;20195;-73
2023/01/04 04:26:42;;;;;;;2.63;2.50;;;6.90;1.00;;;;;;5050766;28;20232;-71
2023/01/04 04:29:08;;;;;;;4.50;2.60;;;6.90;1.00;;;;;;5051709;28;20413;-73
2023/01/04 04:31:34;;;;;;;3.33;2.20;;;6.90;1.00;;;;;;5041178;28;20183;-72
2023/01/04 04:33:59;;;;;;;2.37;2.27;;;6.90;1.00;;;;;;5036605;28;20167;-76
2023/01/04 04:36:25;;;;;;;3.63;2.27;;;6.80;1.00;;;;;;5046835;28;20171;-71
2023/01/04 04:38:51;;;;;;;2.50;2.40;;;6.80;3.60;;;;;;5056832;28;20244;-76
2023/01/04 04:44:01;;;;;;;4.13;2.90;;;6.80;30.00;;;;;;5036343;28;20245;-75
2023/01/04 04:46:27;;;;;;;2.13;2.00;;;6.80;51.90;;;;;;5046101;28;20441;-77
2023/01/04 04:48:53;;;;;;;3.30;2.60;;;6.80;65.60;;;;;;5056453;28;20463;-72
2023/01/04 04:51:19;;;;;;;6.80;2.50;;;6.80;78.70;;;;;;5045372;28;20288;-80
2023/01/04 04:53:45;;;;;;;3.60;2.80;;;6.80;91.20;;;;;;5036021;28;20500;-79
2023/01/04 04:56:10;;;;;;;3.30;2.20;;;6.80;96.50;;;;;;5042396;28;20488;-79
2023/01/04 04:58:36;;;;;;;3.13;2.93;;;6.80;99.90;;;;;;5052981;28;20431;-70
2023/01/04 05:01:03;;;;;;;6.73;2.90;;;6.80;99.90;;;;;;5036174;28;20585;-73
2023/01/04 05:03:29;;;;;;;3.20;2.83;;;6.70;99.90;;;;;;5036124;28;20418;-80
2023/01/04 05:05:54;;;;;;;3.53;3.23;;;6.80;99.90;;;;;;5036134;28;20776;-79
2023/01/04 05:08:20;;;;;;;2.93;2.60;;;6.80;99.90;;;;;;5036207;28;20402;-80
2023/01/04 05:10:46;;;;;;;5.20;3.00;;;6.80;99.90;;;;;;5053401;28;20235;-73
2023/01/04 05:13:12;;;;;;;4.80;3.00;;;6.80;99.90;;;;;;5055832;28;20717;-74
2023/01/04 05:15:47;;;;;;;7.00;2.70;;;6.70;99.90;;;;;;5038443;28;20234;-75
2023/01/04 05:18:15;;;;;;;2.80;2.60;;;6.70;99.90;;;;;;5035819;28;20401;-74
2023/01/04 05:20:41;;;;;;;3.40;3.00;;;6.70;99.90;;;;;;5051553;28;20423;-73
2023/01/04 05:23:07;;;;;;;2.70;2.50;;;6.70;99.90;;;;;;5054470;28;20430;-79
2023/01/04 05:25:33;;;;;;;3.20;2.90;;;6.70;99.90;;;;;;5041811;28;20448;-73
2023/01/04 05:27:59;;;;;;;3.40;3.10;;;6.80;99.90;;;;;;5055317;28;20731;-80
2023/01/04 05:33:09;;;;;;;5.70;2.87;;;6.70;99.90;;;;;;5054719;28;20975;-80
2023/01/04 05:35:35;;;;;;;3.00;2.70;;;6.80;99.90;;;;;;5053303;28;20430;-81
2023/01/04 05:38:01;;;;;;;3.03;2.83;;;6.80;99.90;;;;;;5037730;28;20465;-70
2023/01/04 05:40:27;;;;;;;2.87;2.67;;;6.80;99.90;;;;;;5035323;28;20919;-80
2023/01/04 05:42:52;;;;;;;2.87;2.60;;;6.80;99.90;;;;;;5048737;28;20301;-70
2023/01/04 05:45:20;;;;;;;3.07;2.77;;;6.80;99.90;;;;;;5054198;28;20467;-80
2023/01/04 05:47:49;;;;;;;3.83;2.77;;;6.80;99.90;;;;;;5041974;28;20186;-79
2023/01/04 05:50:19;;;;;;;2.60;2.40;;;6.80;99.90;;;;;;5035345;28;20407;-71
2023/01/04 05:52:46;;;;;;;2.50;2.30;;;6.80;99.90;;;;;;5045189;28;20445;-78
2023/01/04 05:55:12;;;;;;;2.40;2.30;;;6.80;99.90;;;;;;5049079;28;20532;-80
2023/01/04 05:57:38;;;;;;;5.00;3.50;;;6.80;99.90;;;;;;5033958;28;20422;-81
2023/01/04 06:00:06;;;;;;;2.80;2.60;;;6.80;99.90;;;;;;5036368;28;20471;-81
2023/01/04 06:02:32;;;;;;;2.90;2.23;;;6.80;99.90;;;;;;5054839;28;20180;-81
2023/01/04 06:04:59;;;;;;;2.53;2.33;;;6.80;99.90;;;;;;5053284;28;20518;-70
2023/01/04 06:07:25;;;;;;;2.40;2.30;;;6.90;99.90;;;;;;5034789;28;20760;-71
2023/01/04 06:09:51;;;;;;;4.40;2.70;;;6.90;99.90;;;;;;5046832;28;20435;-70
2023/01/04 06:12:16;;;;;;;2.00;1.90;;;6.90;99.90;;;;;;5054680;28;20821;-79
2023/01/04 06:14:42;;;;;;;6.53;3.63;;;6.90;99.90;;;;;;5043281;28;20196;-70
2023/01/04 06:17:08;;;;;;;2.43;2.33;;;6.90;99.90;;;;;;5035161;28;20560;-78
2023/01/04 06:19:34;;;;;;;5.10;2.47;;;6.90;99.90;;;;;;5043060;28;20631;-71
2023/01/04 06:21:59;;;;;;;1.10;1.00;;;6.90;99.90;;;;;;5054029;28;20209;-72
2023/01/04 06:24:25;;;;;;;1.10;1.00;;;6.90;1.00;;;;;;5046600;28;20187;-78
2023/01/04 06:26:51;;;;;;;1.10;1.00;;;7.00;1.00;;;;;;5034687;28;20254;-70
2023/01/04 06:29:16;;;;;;;1.10;1.00;;;7.10;1.00;;;;;;5039006;28;20177;-77
2023/01/04 06:31:42;;;;;;;1.10;1.00;;;7.10;1.00;;;;;;5054395;28;20170;-71
2023/01/04 06:34:12;;;;;;;1.07;0.97;;;7.10;1.00;;;;;;5049853;28;20205;-77
2023/01/04 06:36:38;;;;;;;1.10;1.00;;;7.10;1.00;;;;;;5053530;28;20408;-70
2023/01/04 06:39:05;;;;;;;1.20;1.10;;;7.20;1.00;;;;;;5053614;28;20406;-71
2023/01/04 06:41:30;;;;;;;1.20;1.10;;;7.20;1.00;;;;;;5053805;28;20516;-69
2023/01/04 06:43:56;;;;;;;1.20;1.10;;;7.10;1.00;;;;;;5050159;28;20468;-79
2023/01/04 06:46:22;;;;;;;1.20;1.10;;;7.10;1.00;;;;;;5033254;28;20187;-69
2023/01/04 06:48:47;;;;;;;1.10;1.00;;;7.10;1.00;;;;;;5037589;28;20210;-78
2023/01/04 06:51:13;;;;;;;1.10;1.00;;;7.10;1.00;;;;;;5034147;28;20164;-68
2023/01/04 06:53:39;;;;;;;1.20;1.10;;;7.10;1.00;;;;;;5033884;28;20262;-78
2023/01/04 06:56:06;;;;;;;1.10;1.00;;;7.20;1.00;;;;;;5032488;28;20184;-68
2023/01/04 06:58:32;;;;;;;1.20;1.10;;;7.20;1.00;;;;;;5033347;28;20164;-80
2023/01/04 07:00:58;;;;;;;1.10;1.00;;;7.30;1.00;;;;;;5033872;28;20986;-78
2023/01/04 07:03:24;;;;;;;1.20;1.10;;;7.30;1.00;;;;;;5033920;28;20168;-78
2023/01/04 07:05:49;;;;;;;1.10;1.00;;;7.40;1.00;;;;;;5033045;28;20576;-78
2023/01/04 07:08:15;;;;;;;1.10;1.00;;;7.40;1.00;;;;;;5032665;28;20179;-70
2023/01/04 07:10:41;;;;;;;0.90;0.80;;;7.50;1.00;;;;;;5033755;28;20179;-69
2023/01/04 07:13:07;;;;;;;1.00;0.90;;;7.40;1.00;;;;;;5033640;28;20191;-69
2023/01/04 07:15:33;;;;;;;1.10;1.00;;;7.40;1.00;;;;;;5032000;28;20442;-80
2023/01/04 07:17:59;;;;;;;1.10;1.00;;;7.40;1.00;;;;;;5033433;28;20414;-77
2023/01/04 07:20:25;;;;;;;1.20;1.10;;;7.50;1.00;;;;;;5032796;28;20466;-70
2023/01/04 07:22:51;;;;;;;1.10;1.00;;;7.50;1.00;;;;;;5033556;28;20203;-70
2023/01/04 07:25:17;;;;;;;1.10;1.00;;;7.60;1.00;;;;;;5032817;28;20198;-78
2023/01/04 07:27:42;;;;;;;1.10;1.00;;;7.60;1.00;;;;;;5032265;28;20426;-71
2023/01/04 07:30:09;;;;;;;1.00;0.90;;;7.60;1.00;;;;;;5033450;28;20175;-68
2023/01/04 07:32:34;;;;;;;1.10;1.00;;;7.60;1.00;;;;;;5033332;28;20219;-78
2023/01/04 07:35:00;;;;;;;1.20;1.10;;;7.70;1.00;;;;;;5032560;28;20453;-70
2023/01/04 07:37:26;;;;;;;1.10;1.00;;;7.70;1.00;;;;;;5032352;28;20184;-77
2023/01/04 07:39:52;;;;;;;1.00;0.90;;;7.80;1.00;;;;;;5031472;28;20168;-69
2023/01/04 07:42:19;;;;;;;1.07;0.97;;;7.80;1.00;;;;;;5032444;28;20183;-78
2023/01/04 07:44:45;;;;;;;1.00;0.90;;;7.80;1.00;;;;;;5032456;28;20187;-77
2023/01/04 07:47:10;;;;;;;1.00;0.90;;;7.90;1.00;;;;;;5031884;28;20414;-77
2023/01/04 07:49:36;;;;;;;1.07;0.97;;;7.90;1.00;;;;;;5033193;28;20774;-79
2023/01/04 07:52:02;;;;;;;1.20;1.10;;;7.90;1.00;;;;;;5032989;28;20446;-77
2023/01/04 07:54:28;;;;;;;1.10;1.00;;;8.00;1.00;;;;;;5031055;28;20198;-69
2023/01/04 07:56:54;;;;;;;1.10;1.00;;;8.00;1.00;;;;;;5032875;28;20533;-75
2023/01/04 07:59:20;;;;;;;1.10;1.00;;;8.10;1.00;;;;;;5032786;28;20201;-69
2023/01/04 08:01:47;;;;;;;1.10;1.00;;;8.10;1.00;;;;;;5034220;28;20175;-70
2023/01/04 08:04:14;;;;;;;1.10;1.00;;;8.10;1.00;;;;;;5032814;28;20414;-78
2023/01/04 08:06:41;;;;;;;1.00;0.90;;;8.20;1.00;;;;;;5031133;28;20428;-69
2023/01/04 08:09:09;;;;;;;1.00;0.90;;;8.20;1.00;;;;;;5032905;28;20402;-79
2023/01/04 08:11:35;;;;;;;1.00;0.90;;;8.30;1.00;;;;;;5031752;28;20414;-69
2023/01/04 08:14:01;;;;;;;1.00;0.90;;;8.30;1.00;;;;;;5032458;28;20985;-77
2023/01/04 08:16:32;;;;;;;1.00;0.90;;;8.30;1.00;;;;;;5035033;28;20202;-69
2023/01/04 08:19:03;;;;;;;1.00;0.90;;;8.40;1.00;;;;;;5047695;28;20403;-77
2023/01/04 08:21:32;;;;;;;1.00;0.90;;;8.40;1.00;;;;;;5040096;28;20402;-69
2023/01/04 08:23:57;;;;;;;1.00;0.90;;;8.40;1.00;;;;;;5052675;28;20406;-78
2023/01/04 08:26:23;;;;;;;1.10;1.00;;;8.50;1.00;;;;;;5051881;28;20926;-69
2023/01/04 08:28:49;;;;;;;1.10;1.00;;;8.60;1.00;;;;;;5033126;28;20422;-77
2023/01/04 08:31:19;;;;;;;1.00;0.90;;;8.60;1.00;;;;;;5032743;28;20410;-78
2023/01/04 08:33:45;;;;;;;1.00;0.90;;;8.60;1.00;;;;;;5032038;28;20488;-72
2023/01/04 08:36:21;;;;;;;1.10;1.00;;;8.60;1.00;;;;;;5032313;28;20437;-72
2023/01/04 08:38:48;;;;;;;1.10;1.00;;;8.70;1.00;;;;;;5038517;28;20464;-72
2023/01/04 08:41:15;;;;;;;1.07;0.97;;;8.70;1.00;;;;;;5052618;28;20376;-76
2023/01/04 08:43:41;;;;;;;1.00;0.90;;;8.70;1.00;;;;;;5052480;28;20368;-74
2023/01/04 08:46:08;;;;;;;0.93;0.83;;;8.80;1.00;;;;;;5050800;28;20793;-74
2023/01/04 08:48:34;;;;;;;1.00;0.90;;;8.80;1.00;;;;;;5050774;28;20975;-75
2023/01/04 08:51:02;;;;;;;1.00;0.90;;;8.90;1.00;;;;;;5052059;28;20401;-75
2023/01/04 08:53:28;;;;;;;1.00;0.90;;;8.90;1.00;;;;;;5042651;28;20428;-73
2023/01/04 08:55:55;;;;;;;1.00;0.90;;;9.00;1.00;;;;;;5031578;28;20531;-76
2023/01/04 08:58:21;;;;;;;1.00;0.90;;;9.00;1.00;;;;;;5032458;28;20391;-76
2023/01/04 09:00:47;;;;;;;1.00;0.90;;;9.10;1.00;;;;;;5032534;28;20397;-76
2023/01/04 09:03:13;;;;;;;0.90;0.80;;;9.10;1.00;;;;;;5035805;28;20489;-72
2023/01/04 09:05:39;;;;;;;0.90;0.80;;;9.20;1.00;;;;;;5046901;28;20437;-74
2023/01/04 09:08:05;;;;;;;0.90;0.80;;;9.20;1.00;;;;;;5048738;28;20785;-74
2023/01/04 09:10:31;;;;;;;0.90;0.80;;;9.30;1.00;;;;;;5033844;28;20176;-73
2023/01/04 09:12:57;;;;;;;0.90;0.80;;;9.30;1.00;;;;;;5032391;28;20526;-73
2023/01/04 09:15:22;;;;;;;1.00;0.90;;;9.40;1.00;;;;;;5031400;28;20431;-76
2023/01/04 09:17:49;;;;;;;1.00;0.90;;;9.40;1.00;;;;;;5032962;28;20167;-74
2023/01/04 09:20:15;;;;;;;1.00;0.90;;;9.50;1.00;;;;;;5037919;28;20164;-77
2023/01/04 09:22:40;;;;;;;1.00;0.90;;;9.50;1.00;;;;;;5054811;28;20435;-76
2023/01/04 09:25:07;;;;;;;0.90;0.80;;;9.50;1.00;;;;;;5054717;28;20946;-76
2023/01/04 09:27:33;;;;;;;0.90;0.80;;;9.60;1.00;;;;;;5045048;28;20234;-76
2023/01/04 09:29:59;;;;;;;0.90;0.80;;;9.60;1.00;;;;;;5035643;28;20775;-73
2023/01/04 09:32:25;;;;;;;0.90;0.80;;;9.60;1.00;;;;;;5035624;28;20417;-74
2023/01/04 09:34:51;;;;;;;1.00;0.90;;;9.60;1.00;;;;;;5034815;28;20418;-76
2023/01/04 09:37:16;;;;;;;0.90;0.80;;;9.70;1.00;;;;;;5034388;28;20443;-73
2023/01/04 09:39:43;;;;;;;0.90;0.80;;;9.70;1.00;;;;;;5035567;28;20563;-75
2023/01/04 09:42:26;;;;;;;0.90;0.80;;;9.80;1.00;;;;;;5048145;28;20187;-73
2023/01/04 09:45:00;;;;;;;0.90;0.80;;;9.80;1.00;;;;;;5053029;28;20419;-76
2023/01/04 09:48:04;;;;;;;0.90;0.80;;;9.80;1.00;;;;;;5055397;28;20492;-73
2023/01/04 09:50:50;;;;;;;0.90;0.80;;;9.90;1.00;;;;;;5052098;28;20475;-76
2023/01/04 09:53:23;;;;;;;0.90;0.80;;;9.90;1.00;;;;;;5039834;28;20968;-75
2023/01/04 09:55:53;;;;;;;0.93;0.83;;;9.90;1.00;;;;;;5053126;28;20516;-76
2023/01/04 09:58:27;;;;;;;1.00;0.90;;;10.00;1.00;;;;;;5044282;28;20890;-76
2023/01/04 10:01:03;;;;;;;0.80;0.70;;;10.00;1.00;;;;;;5038782;28;20430;-73
2023/01/04 10:03:40;;;;;;;1.00;0.90;;;10.10;1.00;;;;;;5055070;28;20435;-76
2023/01/04 10:06:10;;;;;;;0.90;0.80;;;10.10;1.00;;;;;;5053918;28;20502;-76
2023/01/04 10:08:36;;;;;;;0.90;0.80;;;10.20;1.00;;;;;;5054899;28;20372;-76
2023/01/04 10:11:21;;;;;;;0.90;0.80;;;10.20;1.00;;;;;;5039456;28;20392;-75
2023/01/04 10:14:02;;;;;;;0.90;0.80;;;10.20;1.00;;;;;;5037866;28;20469;-74
2023/01/04 10:16:55;;;;;;;0.90;0.80;;;10.20;1.00;;;;;;5045080;28;20416;-76
2023/01/04 10:19:34;;;;;;;1.10;1.00;;;10.20;1.00;;;;;;5039108;28;20442;-77
2023/01/04 10:22:30;;;;;;;1.00;0.90;;;10.30;1.00;;;;;;5053312;28;20392;-76
2023/01/04 10:25:13;;;;;;;1.00;0.90;;;10.30;1.00;;;;;;5039160;28;20437;-76
2023/01/04 10:27:58;;;;;;;0.90;0.80;;;10.30;1.00;;;;;;5054471;28;20411;-73
2023/01/04 10:30:45;;;;;;;0.90;0.80;;;10.30;1.00;;;;;;5052837;28;20412;-78
2023/01/04 10:33:41;;;;;;;0.90;0.80;;;10.40;1.00;;;;;;5039075;28;20453;-78
2023/01/04 10:36:30;;;;;;;0.90;0.80;;;10.40;1.00;;;;;;5047097;28;20483;-76
2023/01/04 10:39:02;;;;;;;0.90;0.80;;;10.40;1.00;;;;;;5041549;28;20445;-73
2023/01/04 10:41:35;;;;;;;0.90;0.80;;;10.40;1.00;;;;;;5054221;28;20445;-77
2023/01/04 10:44:12;;;;;;;0.90;0.80;;;10.40;1.00;;;;;;5040135;28;20422;-75
2023/01/04 10:46:50;;;;;;;1.00;0.90;;;10.50;1.00;;;;;;5033060;28;20922;-76
2023/01/04 10:49:19;;;;;;;1.00;0.90;;;10.50;1.00;;;;;;5034244;28;20784;-73
2023/01/04 10:51:55;;;;;;;0.90;0.80;;;10.50;1.00;;;;;;5034151;28;20411;-75
2023/01/04 10:54:38;;;;;;;0.90;0.80;;;10.50;1.00;;;;;;5033393;28;20460;-74
2023/01/04 10:57:39;;;;;;;0.90;0.80;;;10.50;1.00;;;;;;5033417;28;20401;-73
2023/01/04 11:00:14;;;;;;;0.90;0.80;;;10.50;1.00;;;;;;5033512;28;20876;-77
2023/01/04 11:03:19;;;;;;;0.90;0.80;;;10.50;1.00;;;;;;5033892;28;20390;-76
2023/01/04 11:05:57;;;;;;;0.90;0.80;;;10.60;1.00;;;;;;5031043;28;20425;-72
2023/01/04 11:08:29;;;;;;;0.90;0.80;;;10.60;1.00;;;;;;5033471;28;20402;-75
2023/01/04 11:11:15;;;;;;;0.90;0.80;;;10.60;1.00;;;;;;5032893;28;20387;-73
2023/01/04 11:13:40;;;;;;;0.90;0.80;;;10.60;1.00;;;;;;5033669;28;20431;-74
2023/01/04 11:16:07;;;;;;;0.90;0.80;;;10.60;1.00;;;;;;5032336;28;20414;-75
2023/01/04 11:18:36;;;;;;;0.90;0.80;;;10.60;1.00;;;;;;5033545;28;20163;-73
2023/01/04 11:21:07;;;;;;;0.90;0.80;;;10.60;1.00;;;;;;5033678;28;20401;-75
2023/01/04 11:23:33;;;;;;;0.90;0.80;;;10.60;1.00;;;;;;5033705;28;20383;-74
2023/01/04 11:26:05;;;;;;;0.90;0.80;;;10.70;1.00;;;;;;5032837;28;20424;-75
2023/01/04 11:28:42;;;;;;;0.90;0.80;;;10.70;1.00;;;;;;5033466;28;20182;-76
2023/01/04 11:31:08;;;;;;;0.80;0.70;;;10.70;1.00;;;;;;5033643;28;20410;-74
2023/01/04 11:33:57;;;;;;;0.90;0.73;;;10.70;1.00;;;;;;5033595;28;20427;-74
2023/01/04 11:36:32;;;;;;;0.90;0.80;;;10.70;1.00;;;;;;5032046;28;20179;-74
2023/01/04 11:38:58;;;;;;;0.80;0.70;;;10.70;1.00;;;;;;5033342;28;20407;-74
2023/01/04 11:41:25;;;;;;;0.93;0.83;;;10.70;1.00;;;;;;5032713;28;20397;-73
2023/01/04 11:44:04;;;;;;;0.90;0.80;;;10.70;1.00;;;;;;5033176;28;20382;-75
2023/01/04 11:46:31;;;;;;;0.90;0.80;;;10.80;1.00;;;;;;5031355;28;20490;-74
2023/01/04 11:48:57;;;;;;;0.87;0.80;;;10.70;1.00;;;;;;5031925;28;20422;-73
2023/01/04 11:51:25;;;;;;;0.90;0.77;;;10.80;1.00;;;;;;5033218;28;20453;-75
2023/01/04 11:53:58;;;;;;;0.90;0.80;;;10.80;1.00;;;;;;5032774;28;20510;-75
2023/01/04 11:56:25;;;;;;;0.83;0.80;;;10.80;1.00;;;;;;5032188;28;20484;-76
2023/01/04 11:59:13;;;;;;;0.90;0.80;;;10.80;1.00;;;;;;5033112;28;20387;-75
2023/01/04 12:01:44;;;;;;;1.00;0.90;;;10.80;1.00;;;;;;5033127;28;20384;-75
2023/01/04 12:04:25;;;;;;;0.80;0.80;;;10.80;1.00;;;;;;5031534;28;21000;-72
2023/01/04 12:07:01;;;;;;;0.90;0.80;;;10.80;1.00;;;;;;5033101;28;20510;-76
2023/01/04 12:09:29;;;;;;;0.90;0.80;;;10.80;1.00;;;;;;5032020;28;20406;-73
2023/01/04 12:12:00;;;;;;;0.90;0.80;;;10.80;1.00;;;;;;5032321;28;20413;-75
2023/01/04 12:14:28;;;;;;;0.90;0.80;;;10.90;1.00;;;;;;5032211;28;20560;-74
2023/01/04 12:17:19;;;;;;;0.80;0.70;;;10.90;1.00;;;;;;5032959;28;20379;-73
2023/01/04 12:19:46;;;;;;;0.90;0.80;;;10.90;1.00;;;;;;5032913;28;20965;-72
2023/01/04 12:22:33;;;;;;;0.90;0.80;;;10.90;1.00;;;;;;5033052;28;20430;-77
2023/01/04 12:25:00;;;;;;;0.80;0.70;;;10.90;1.00;;;;;;5032175;28;20513;-75
2023/01/04 12:27:26;;;;;;;0.90;0.80;;;10.90;1.00;;;;;;5032844;28;20406;-74
2023/01/04 12:30:01;;;;;;;0.90;0.80;;;11.00;1.00;;;;;;5032069;28;20526;-72
2023/01/04 12:32:26;;;;;;;0.87;0.70;;;11.00;1.00;;;;;;5032715;28;20444;-75
2023/01/04 12:34:53;;;;;;;0.90;0.80;;;11.00;1.00;;;;;;5032101;28;20423;-73
2023/01/04 12:37:44;;;;;;;0.90;0.80;;;11.00;1.00;;;;;;5031351;28;20629;-78
2023/01/04 12:40:45;;;;;;;0.90;0.80;;;10.90;1.00;;;;;;5032773;28;20859;-74
2023/01/04 12:43:13;;;;;;;0.90;0.80;;;11.00;1.00;;;;;;5032588;28;20493;-76
2023/01/04 12:45:40;;;;;;;0.90;0.80;;;10.90;1.00;;;;;;5031916;28;20448;-73
2023/01/04 12:51:25;;;;;;;0.90;0.80;;;11.00;1.00;;;;;;5032544;28;20968;-76
2023/01/04 12:53:54;;;;;;;0.90;0.80;;;10.90;1.00;;;;;;5036182;28;20444;-75
2023/01/04 12:56:20;;;;;;;0.90;0.80;;;10.90;1.00;;;;;;5035755;28;20394;-77
2023/01/04 12:59:06;;;;;;;0.90;0.80;;;11.00;1.00;;;;;;5036342;28;20436;-78
2023/01/04 13:01:32;;;;;;;0.93;0.83;;;10.90;1.00;;;;;;5036058;28;20665;-72
2023/01/04 13:04:22;;;;;;;0.90;0.80;;;10.90;1.00;;;;;;5036148;28;20401;-80
2023/01/04 13:06:48;;;;;;;0.90;0.80;;;10.90;1.00;;;;;;5034858;28;20787;-77
2023/01/04 13:09:19;;;;;;;1.30;1.20;;;10.90;1.00;;;;;;5036033;28;20434;-79
2023/01/04 13:12:03;;;;;;;0.80;0.70;;;10.90;1.00;;;;;;5036020;28;20376;-77
2023/01/04 13:14:52;;;;;;;0.80;0.70;;;10.90;1.00;;;;;;5035220;28;20448;-72
2023/01/04 13:17:24;;;;;;;0.90;0.80;;;10.90;1.00;;;;;;5034647;28;20404;-77
2023/01/04 13:19:50;;;;;;;0.90;0.80;;;10.90;1.00;;;;;;5035082;28;20409;-78
2023/01/04 13:22:29;;;;;;;0.90;0.80;;;10.90;1.00;;;;;;5035645;28;20391;-77
2023/01/04 13:24:56;;;;;;;0.83;0.70;;;11.00;1.00;;;;;;5035050;28;20544;-72
2023/01/04 13:27:23;;;;;;;0.90;0.80;;;11.00;1.00;;;;;;5035669;28;20402;-76
2023/01/04 13:29:50;;;;;;;0.90;0.80;;;11.00;1.00;;;;;;5034381;28;20430;-71
2023/01/04 13:32:25;;;;;;;0.90;0.80;;;11.00;1.00;;;;;;5035731;28;20411;-71
2023/01/04 13:35:03;;;;;;;0.90;0.80;;;11.10;1.00;;;;;;5033763;28;20466;-82
2023/01/04 13:37:35;;;;;;;0.90;0.80;;;11.10;1.00;;;;;;5035548;28;20400;-79
2023/01/04 13:40:24;;;;;;;0.80;0.80;;;11.10;1.00;;;;;;5035148;28;20384;-72
2023/01/04 13:43:13;;;;;;;0.90;0.80;;;11.10;1.00;;;;;;5035357;28;20412;-72
2023/01/04 13:46:16;;;;;;;1.00;0.90;;;11.10;1.00;;;;;;5034663;28;20441;-80
2023/01/04 13:48:46;;;;;;;0.90;0.80;;;11.10;1.00;;;;;;5035456;28;20384;-71
2023/01/04 13:51:13;;;;;;;0.80;0.70;;;11.10;1.00;;;;;;5035400;28;20755;-71
2023/01/04 13:53:39;;;;;;;0.90;0.80;;;11.10;1.00;;;;;;5035291;28;20453;-82
2023/01/04 13:56:21;;;;;;;0.90;0.80;;;11.10;1.00;;;;;;5034450;28;20399;-81
2023/01/04 13:58:47;;;;;;;0.90;0.80;;;11.10;1.00;;;;;;5033369;28;20409;-72
2023/01/04 14:01:35;;;;;;;0.90;0.80;;;11.10;1.00;;;;;;5035156;28;20380;-72
2023/01/04 14:04:04;;;;;;;0.80;0.80;;;11.20;1.00;;;;;;5032835;28;20208;-81
2023/01/04 14:06:40;;;;;;;0.90;0.70;;;11.10;1.00;;;;;;5033217;28;20435;-83
2023/01/04 14:09:08;;;;;;;0.90;0.80;;;11.10;1.00;;;;;;5035018;28;20790;-73
2023/01/04 14:12:00;;;;;;;0.90;0.80;;;11.10;1.00;;;;;;5033815;28;20392;-72